Time;durP1;ratioP1;P1;durP2;ratioP2;P2;SDS_P1;SDS_P2;PMS_P1;PMS_P2;Temp;Humidity;BMP_temperature;BMP_pressure;BME280_temperature;BME280_humidity;BME280_pressure;Samples;Min_cycle;Max_cycle;Signal;HPM_P1;HPM_P2
2023/03/02 00:01:18;;;;;;;14.82;13.32;;;;;;;0.77;80.68;98881.53;4173286;28;20258;-51
2023/03/02 00:03:20;;;;;;;14.02;12.63;;;;;;;0.75;80.62;98872.78;4175806;28;20668;-51
2023/03/02 00:05:23;;;;;;;14.27;12.77;;;;;;;0.73;80.83;98869.44;4160021;28;20205;-51
2023/03/02 00:07:28;;;;;;;14.63;13.32;;;;;;;0.75;80.74;98875.47;4159853;28;20599;-51
2023/03/02 00:09:29;;;;;;;14.38;13.02;;;;;;;0.77;80.87;98870.75;4160974;28;20212;-51
2023/03/02 00:11:33;;;;;;;13.57;12.32;;;;;;;0.87;80.38;98874.03;4159416;28;21625;-51
2023/03/02 00:13:36;;;;;;;14.55;13.15;;;;;;;0.70;80.82;98864.44;4168950;28;20315;-51
2023/03/02 00:15:38;;;;;;;15.05;13.68;;;;;;;0.69;81.30;98867.28;4159667;28;20247;-51
2023/03/02 00:17:39;;;;;;;13.63;12.30;;;;;;;0.68;81.22;98861.06;4159245;28;20625;-52
2023/03/02 00:19:43;;;;;;;13.60;12.30;;;;;;;0.66;81.39;98867.63;4159997;28;20307;-51
2023/03/02 00:21:45;;;;;;;13.80;12.60;;;;;;;0.58;80.97;98860.47;4160698;28;20204;-51
2023/03/02 00:23:47;;;;;;;11.25;10.25;;;;;;;0.67;81.53;98864.75;4176071;28;20283;-51
2023/03/02 00:25:48;;;;;;;13.07;11.98;;;;;;;0.66;81.08;98863.09;4177925;28;20762;-52
2023/03/02 00:27:50;;;;;;;14.80;13.35;;;;;;;0.83;81.11;98859.28;4161021;28;20891;-51
2023/03/02 00:29:51;;;;;;;13.68;12.38;;;;;;;0.63;80.83;98862.63;4158543;28;20213;-52
2023/03/02 00:31:53;;;;;;;13.07;11.98;;;;;;;0.63;81.83;98866.16;4160765;28;20654;-51
2023/03/02 00:33:55;;;;;;;13.50;12.20;;;;;;;0.67;81.82;98858.56;4163729;28;20213;-50
2023/03/02 00:35:57;;;;;;;15.45;11.30;;;;;;;0.61;81.63;98853.88;4177643;28;20215;-51
2023/03/02 00:37:58;;;;;;;12.82;10.82;;;;;;;0.55;82.28;98850.03;4161410;28;20278;-51
2023/03/02 00:40:05;;;;;;;14.13;12.82;;;;;;;0.57;81.90;98848.03;4157035;28;20320;-51
2023/03/02 00:42:07;;;;;;;13.98;11.68;;;;;;;0.63;81.76;98854.53;4159474;28;20243;-53
2023/03/02 00:44:16;;;;;;;14.50;11.60;;;;;;;0.44;81.88;98858.53;4173553;28;20269;-52
2023/03/02 00:46:21;;;;;;;12.93;11.77;;;;;;;0.50;82.20;98849.75;4176134;28;20247;-51
2023/03/02 00:48:22;;;;;;;13.32;12.07;;;;;;;0.44;82.21;98853.16;4158940;28;20725;-51
2023/03/02 00:50:24;;;;;;;15.48;12.70;;;;;;;0.47;82.44;98851.97;4177118;28;20201;-51
2023/03/02 00:52:28;;;;;;;17.13;15.43;;;;;;;0.51;82.38;98854.13;4174731;28;20259;-52
2023/03/02 00:54:30;;;;;;;17.17;15.57;;;;;;;0.41;82.29;98853.50;4159063;28;20291;-51
2023/03/02 00:56:32;;;;;;;14.95;13.35;;;;;;;0.41;82.92;98848.13;4159034;28;20252;-52
2023/03/02 00:58:35;;;;;;;14.38;12.98;;;;;;;0.51;82.97;98854.13;4157475;28;20228;-51
2023/03/02 01:00:36;;;;;;;14.27;12.90;;;;;;;0.42;83.39;98857.03;4157392;28;20228;-51
2023/03/02 01:02:42;;;;;;;15.85;13.05;;;;;;;0.38;83.14;98851.19;4160070;28;20719;-52
2023/03/02 01:04:45;;;;;;;16.88;15.20;;;;;;;0.46;84.09;98844.88;4150679;28;20705;-53
2023/03/02 01:06:47;;;;;;;14.50;13.17;;;;;;;0.37;82.83;98846.81;4175863;28;20208;-51
2023/03/02 01:08:49;;;;;;;14.60;13.15;;;;;;;0.34;83.27;98843.66;4175937;28;20361;-51
2023/03/02 01:10:51;;;;;;;15.97;14.53;;;;;;;0.31;82.96;98847.53;4174682;28;20204;-50
2023/03/02 01:12:54;;;;;;;16.70;15.13;;;;;;;0.31;83.22;98844.84;4159261;28;20216;-51
2023/03/02 01:14:56;;;;;;;16.50;14.90;;;;;;;0.32;83.83;98837.59;4148637;28;20296;-50
2023/03/02 01:16:58;;;;;;;29.17;20.77;;;;;;;0.32;83.88;98833.06;4158058;28;20406;-52
2023/03/02 01:19:00;;;;;;;51.97;29.57;;;;;;;0.29;83.75;98838.78;4175557;28;20625;-52
2023/03/02 01:21:10;;;;;;;51.28;30.98;;;;;;;0.21;83.70;98833.44;4159845;28;20262;-52
2023/03/02 01:23:12;;;;;;;43.42;25.58;;;;;;;0.22;83.64;98823.53;4159308;28;20278;-50
2023/03/02 01:25:13;;;;;;;31.88;22.80;;;;;;;0.21;83.88;98819.19;4174852;28;20701;-52
2023/03/02 01:27:15;;;;;;;18.17;16.10;;;;;;;0.20;83.63;98818.31;4176052;28;20226;-51
2023/03/02 01:29:17;;;;;;;16.60;15.10;;;;;;;0.16;83.49;98822.38;4173077;28;20227;-51
2023/03/02 01:31:18;;;;;;;16.05;14.45;;;;;;;0.23;83.93;98818.00;4171337;28;21063;-51
2023/03/02 01:33:20;;;;;;;15.57;14.07;;;;;;;0.12;83.80;98821.06;4158797;28;20244;-51
2023/03/02 01:35:22;;;;;;;15.50;14.20;;;;;;;0.08;84.62;98808.16;4156448;28;20212;-51
2023/03/02 01:37:24;;;;;;;15.52;14.05;;;;;;;0.02;84.52;98809.69;4158062;28;20296;-51
2023/03/02 01:39:25;;;;;;;17.80;16.07;;;;;;;0.00;84.39;98810.91;4174890;28;20314;-52
2023/03/02 01:41:27;;;;;;;16.25;14.93;;;;;;;0.06;84.67;98812.84;4158031;28;20213;-50
2023/03/02 01:43:29;;;;;;;18.10;16.40;;;;;;;0.01;84.63;98802.63;4176078;28;20299;-52
2023/03/02 01:45:56;;;;;;;17.65;15.95;;;;;;;-0.02;84.82;98797.63;4159596;28;20930;-51
2023/03/02 01:47:58;;;;;;;16.80;14.83;;;;;;;0.01;84.95;98791.88;4156647;28;20236;-51
2023/03/02 01:50:21;;;;;;;15.30;13.73;;;;;;;-0.01;85.09;98799.28;4175406;28;20872;-51
2023/03/02 01:52:22;;;;;;;16.73;15.20;;;;;;;-0.06;85.08;98790.91;4158956;28;20283;-51
2023/03/02 01:54:24;;;;;;;16.40;13.90;;;;;;;-0.09;84.85;98786.91;4174926;28;20746;-52
2023/03/02 01:56:30;;;;;;;14.57;13.13;;;;;;;-0.08;85.40;98785.91;4173819;28;20235;-52
2023/03/02 01:58:35;;;;;;;19.90;14.43;;;;;;;-0.13;85.31;98789.94;4156134;28;20228;-52
2023/03/02 02:00:38;;;;;;;13.67;12.17;;;;;;;-0.08;85.23;98784.88;4155786;28;20311;-51
2023/03/02 02:02:40;;;;;;;14.33;12.83;;;;;;;-0.04;85.44;98788.06;4157828;28;20216;-51
2023/03/02 02:04:44;;;;;;;20.37;13.23;;;;;;;-0.10;85.29;98780.69;4158564;28;20324;-55
2023/03/02 02:06:56;;;;;;;15.73;14.33;;;;;;;-0.05;85.35;98781.81;4142412;28;20275;-52
2023/03/02 02:08:59;;;;;;;14.13;12.73;;;;;;;-0.16;85.96;98788.66;4149714;28;20224;-51
2023/03/02 02:11:00;;;;;;;16.00;13.57;;;;;;;-0.09;86.58;98787.75;4158345;28;20593;-51
2023/03/02 02:13:02;;;;;;;13.43;12.23;;;;;;;-0.07;86.74;98783.88;4130847;28;20244;-52
2023/03/02 02:15:05;;;;;;;15.77;14.27;;;;;;;0.04;87.00;98786.16;4160231;28;20208;-51
2023/03/02 02:17:07;;;;;;;13.23;12.03;;;;;;;0.10;86.77;98784.59;4157174;28;20753;-52
2023/03/02 02:19:25;;;;;;;15.07;13.57;;;;;;;0.06;86.47;98778.75;4140199;28;20312;-51
2023/03/02 02:21:27;;;;;;;15.57;14.07;;;;;;;0.09;86.63;98781.06;4157970;28;20298;-50
2023/03/02 02:23:40;;;;;;;15.60;14.10;;;;;;;0.01;86.57;98775.75;4146692;28;21351;-51
2023/03/02 02:26:01;;;;;;;18.40;14.40;;;;;;;0.13;86.77;98782.41;4174133;28;20219;-51
2023/03/02 02:28:07;;;;;;;15.67;14.00;;;;;;;0.05;86.78;98777.06;4175672;28;20585;-52
2023/03/02 02:30:10;;;;;;;17.03;15.23;;;;;;;0.00;86.78;98774.06;4150882;28;20292;-51
2023/03/02 02:32:16;;;;;;;16.05;14.25;;;;;;;-0.04;86.58;98770.06;4153030;28;20705;-51
2023/03/02 02:34:32;;;;;;;18.37;16.43;;;;;;;-0.04;86.76;98778.13;4139335;28;20971;-51
2023/03/02 02:36:38;;;;;;;15.30;13.83;;;;;;;0.00;86.85;98768.69;4174033;28;20199;-51
2023/03/02 02:38:40;;;;;;;16.03;14.27;;;;;;;-0.08;86.74;98782.19;4156106;28;20697;-52
2023/03/02 02:40:48;;;;;;;15.60;13.97;;;;;;;-0.13;86.77;98784.56;4159898;28;20232;-51
2023/03/02 02:42:51;;;;;;;15.10;13.60;;;;;;;-0.14;87.01;98770.47;4144081;28;20243;-51
2023/03/02 02:44:57;;;;;;;16.20;14.60;;;;;;;-0.14;87.08;98770.47;4157984;28;20634;-52
2023/03/02 02:46:58;;;;;;;19.27;15.57;;;;;;;-0.14;87.21;98776.66;4169595;28;20232;-50
2023/03/02 02:49:02;;;;;;;13.83;12.40;;;;;;;-0.15;87.15;98760.75;4174208;28;20224;-51
2023/03/02 02:51:07;;;;;;;16.63;13.90;;;;;;;-0.06;87.14;98758.66;4153318;28;20208;-51
2023/03/02 02:53:27;;;;;;;15.90;14.33;;;;;;;-0.09;86.95;98757.34;4176852;28;20203;-51
2023/03/02 02:55:29;;;;;;;14.33;12.83;;;;;;;-0.08;87.28;98759.84;4177751;28;20295;-51
2023/03/02 02:57:31;;;;;;;17.40;14.80;;;;;;;-0.09;87.44;98762.72;4145405;28;20248;-50
2023/03/02 02:59:35;;;;;;;15.33;14.03;;;;;;;-0.05;87.26;98767.56;4177768;28;20235;-53
2023/03/02 03:01:37;;;;;;;18.53;13.13;;;;;;;-0.14;87.81;98770.47;4161564;28;20307;-52
2023/03/02 03:03:44;;;;;;;13.65;12.50;;;;;;;-0.06;87.48;98763.22;4178350;28;20731;-52
2023/03/02 03:05:46;;;;;;;18.43;13.90;;;;;;;0.00;87.36;98755.25;4170685;28;20295;-51
2023/03/02 03:07:47;;;;;;;13.90;12.50;;;;;;;-0.09;87.73;98774.28;4159318;28;20376;-52
2023/03/02 03:10:10;;;;;;;15.90;14.37;;;;;;;0.00;87.30;98768.69;4162754;28;20204;-50
2023/03/02 03:12:16;;;;;;;14.57;13.13;;;;;;;-0.05;87.47;98765.69;4174881;28;20303;-51
2023/03/02 03:14:20;;;;;;;14.87;13.40;;;;;;;-0.13;87.43;98768.44;4152370;28;20723;-51
2023/03/02 03:16:23;;;;;;;16.13;13.93;;;;;;;-0.12;87.48;98766.59;4149649;28;20680;-52
2023/03/02 03:18:24;;;;;;;17.20;14.40;;;;;;;-0.09;87.36;98768.91;4151688;28;20225;-51
2023/03/02 03:20:27;;;;;;;13.93;12.57;;;;;;;-0.16;87.40;98767.94;4154864;28;20312;-51
2023/03/02 03:22:29;;;;;;;15.90;14.50;;;;;;;-0.22;87.42;98767.84;4176397;28;20248;-52
2023/03/02 03:24:33;;;;;;;17.03;15.50;;;;;;;-0.29;87.83;98766.88;4161772;28;20211;-51
2023/03/02 03:26:35;;;;;;;12.70;11.57;;;;;;;-0.25;87.74;98765.47;4176960;28;20714;-52
2023/03/02 03:28:37;;;;;;;16.13;14.73;;;;;;;-0.29;88.08;98761.50;4177117;28;20255;-52
2023/03/02 03:30:39;;;;;;;14.53;13.20;;;;;;;-0.25;88.09;98762.78;4156309;28;20277;-52
2023/03/02 03:32:41;;;;;;;14.40;13.10;;;;;;;-0.17;88.10;98768.13;4176264;28;20204;-51
2023/03/02 03:34:43;;;;;;;15.97;14.33;;;;;;;-0.21;88.24;98769.50;4159496;28;20754;-53
2023/03/02 03:36:46;;;;;;;14.57;13.20;;;;;;;-0.32;88.35;98767.19;4162636;28;20204;-51
2023/03/02 03:38:48;;;;;;;18.07;14.20;;;;;;;-0.26;88.90;98761.13;4161450;28;20224;-51
2023/03/02 03:40:49;;;;;;;15.70;13.97;;;;;;;-0.31;88.97;98755.44;4159953;28;20252;-52
2023/03/02 03:42:52;;;;;;;15.53;14.13;;;;;;;-0.21;88.94;98758.75;4160142;28;20320;-51
2023/03/02 03:44:54;;;;;;;15.87;14.33;;;;;;;-0.27;88.88;98751.38;4159988;28;20256;-51
2023/03/02 03:46:55;;;;;;;16.00;14.60;;;;;;;-0.37;90.35;98758.81;4157386;28;20229;-51
2023/03/02 03:48:57;;;;;;;15.07;13.80;;;;;;;-0.31;90.01;98756.28;4176660;28;20255;-51
2023/03/02 03:50:59;;;;;;;15.67;14.13;;;;;;;-0.37;91.34;98758.81;4160835;28;20772;-50
2023/03/02 03:53:01;;;;;;;16.40;14.87;;;;;;;-0.40;91.18;98753.81;4162540;28;20388;-52
2023/03/02 03:55:04;;;;;;;16.03;14.27;;;;;;;-0.22;90.54;98757.09;4176545;28;20212;-52
2023/03/02 03:57:06;;;;;;;15.00;13.40;;;;;;;-0.24;90.06;98762.63;4160556;28;20682;-51
2023/03/02 03:59:11;;;;;;;21.83;13.67;;;;;;;-0.38;90.58;98757.16;4175511;28;20256;-53
2023/03/02 04:01:12;;;;;;;15.43;13.83;;;;;;;-0.23;90.17;98755.38;4176177;28;20239;-52
2023/03/02 04:03:14;;;;;;;19.47;16.03;;;;;;;-0.26;89.98;98767.34;4168898;28;20212;-52
2023/03/02 04:05:17;;;;;;;15.87;14.30;;;;;;;-0.15;89.55;98760.75;4159712;28;20240;-52
2023/03/02 04:07:19;;;;;;;14.50;13.03;;;;;;;-0.14;89.67;98759.72;4161100;28;20784;-53
2023/03/02 04:09:21;;;;;;;16.10;14.60;;;;;;;-0.08;89.09;98760.69;4161728;28;20252;-51
2023/03/02 04:11:23;;;;;;;15.83;14.30;;;;;;;-0.07;88.82;98765.03;4159486;28;20307;-51
2023/03/02 04:13:25;;;;;;;15.73;14.10;;;;;;;-0.16;88.68;98765.25;4144363;28;20746;-51
2023/03/02 04:15:27;;;;;;;16.30;14.83;;;;;;;-0.07;88.44;98764.19;4159885;28;20223;-51
2023/03/02 04:17:28;;;;;;;15.40;13.90;;;;;;;-0.31;88.92;98771.56;4160910;28;20219;-51
2023/03/02 04:19:31;;;;;;;15.30;13.80;;;;;;;-0.27;88.99;98764.84;4153199;28;20654;-51
2023/03/02 04:21:33;;;;;;;15.33;13.93;;;;;;;-0.31;89.04;98766.19;4173639;28;20804;-51
2023/03/02 04:23:34;;;;;;;13.17;11.93;;;;;;;-0.30;89.44;98760.63;4160393;28;20212;-50
2023/03/02 04:25:36;;;;;;;14.30;13.10;;;;;;;-0.25;89.29;98762.78;4174651;28;20945;-53
2023/03/02 04:27:38;;;;;;;15.67;14.20;;;;;;;-0.33;89.47;98770.91;4174673;28;20212;-51
2023/03/02 04:29:40;;;;;;;14.67;13.30;;;;;;;-0.25;89.00;98773.53;4159626;28;20672;-51
2023/03/02 04:31:42;;;;;;;14.63;13.13;;;;;;;-0.40;88.92;98765.38;4175277;28;20231;-52
2023/03/02 04:33:44;;;;;;;15.20;13.63;;;;;;;-0.51;89.18;98770.31;4157022;28;20702;-52
2023/03/02 04:35:48;;;;;;;16.50;14.73;;;;;;;-0.57;89.43;98762.94;4142364;28;20694;-51
2023/03/02 04:37:50;;;;;;;15.33;13.93;;;;;;;-0.64;89.49;98757.44;4159183;28;20240;-51
2023/03/02 04:39:52;;;;;;;14.93;13.13;;;;;;;-0.49;89.56;98755.69;4177599;28;20236;-52
2023/03/02 04:41:54;;;;;;;14.83;13.20;;;;;;;-0.42;89.67;98763.91;4161429;28;20391;-53
2023/03/02 04:43:56;;;;;;;13.93;12.50;;;;;;;-0.43;89.55;98760.38;4160580;28;20204;-51
2023/03/02 04:45:58;;;;;;;18.77;15.73;;;;;;;-0.46;89.37;98759.88;4160463;28;20712;-52
2023/03/02 04:48:00;;;;;;;16.37;14.67;;;;;;;-0.62;89.60;98765.34;4176140;28;20255;-52
2023/03/02 04:50:01;;;;;;;14.53;12.40;;;;;;;-0.56;90.00;98767.31;4160168;28;20421;-51
2023/03/02 04:52:03;;;;;;;16.00;14.37;;;;;;;-0.63;90.09;98769.00;4178101;28;20227;-52
2023/03/02 04:54:09;;;;;;;13.83;12.50;;;;;;;-0.50;89.65;98763.91;4158750;28;20212;-51
2023/03/02 04:56:11;;;;;;;15.57;14.00;;;;;;;-0.52;89.56;98765.94;4173901;28;20770;-51
2023/03/02 04:58:12;;;;;;;14.97;13.13;;;;;;;-0.60;90.31;98768.69;4158754;28;20240;-51
2023/03/02 05:00:16;;;;;;;18.27;13.67;;;;;;;-0.65;90.90;98766.53;4175522;28;20234;-51
2023/03/02 05:02:18;;;;;;;16.30;14.67;;;;;;;-0.72;90.10;98759.31;4157792;28;20255;-52
2023/03/02 05:04:20;;;;;;;17.03;14.73;;;;;;;-0.78;90.63;98758.16;4158348;28;20236;-51
2023/03/02 05:06:23;;;;;;;19.97;14.07;;;;;;;-0.82;90.61;98764.06;4158932;28;20227;-52
2023/03/02 05:08:25;;;;;;;15.73;14.10;;;;;;;-0.86;90.97;98768.94;4158099;28;20740;-51
2023/03/02 05:10:27;;;;;;;15.13;13.83;;;;;;;-0.88;90.95;98759.38;4157410;28;20300;-52
2023/03/02 05:12:29;;;;;;;15.67;12.60;;;;;;;-0.95;90.92;98759.22;4173368;28;20295;-52
2023/03/02 05:14:31;;;;;;;14.57;13.07;;;;;;;-0.89;90.99;98757.72;4160650;28;20220;-52
2023/03/02 05:16:35;;;;;;;16.83;14.83;;;;;;;-0.80;90.80;98762.84;4159719;28;20282;-51
2023/03/02 05:18:37;;;;;;;15.10;13.60;;;;;;;-0.77;90.55;98764.34;4157105;28;20240;-49
2023/03/02 05:20:39;;;;;;;16.17;14.50;;;;;;;-0.90;90.14;98750.63;4159753;28;20244;-52
2023/03/02 05:22:41;;;;;;;13.70;12.40;;;;;;;-0.99;90.69;98757.91;4173126;28;20220;-50
2023/03/02 05:24:42;;;;;;;16.27;14.73;;;;;;;-0.94;91.06;98754.69;4157031;28;20212;-50
2023/03/02 05:26:44;;;;;;;17.97;14.67;;;;;;;-1.05;91.07;98760.41;4176011;28;20239;-51
2023/03/02 05:28:46;;;;;;;16.97;13.67;;;;;;;-1.02;91.45;98763.59;4173961;28;20318;-52
2023/03/02 05:30:48;;;;;;;16.63;14.93;;;;;;;-0.98;91.37;98758.72;4159568;28;20235;-50
2023/03/02 05:32:51;;;;;;;17.60;13.30;;;;;;;-0.95;91.36;98753.84;4173830;28;20231;-50
2023/03/02 05:34:52;;;;;;;16.93;14.57;;;;;;;-1.07;91.51;98762.44;4175287;28;20315;-51
2023/03/02 05:36:55;;;;;;;17.13;15.63;;;;;;;-1.15;91.62;98757.09;4175714;28;20295;-50
2023/03/02 05:38:57;;;;;;;17.00;15.30;;;;;;;-1.05;91.98;98768.47;4158563;28;20796;-51
2023/03/02 05:40:59;;;;;;;17.07;15.30;;;;;;;-1.01;91.59;98759.91;4176886;28;20699;-51
2023/03/02 05:43:01;;;;;;;17.33;15.13;;;;;;;-1.06;91.93;98753.38;4158993;28;20300;-51
2023/03/02 05:45:04;;;;;;;16.47;14.80;;;;;;;-1.05;91.77;98750.53;4158841;28;20213;-51
2023/03/02 05:47:05;;;;;;;16.60;15.00;;;;;;;-1.09;91.48;98754.56;4153622;28;20244;-50
2023/03/02 05:49:07;;;;;;;18.57;15.20;;;;;;;-1.17;91.77;98759.09;4175980;28;20705;-51
2023/03/02 05:51:09;;;;;;;16.47;14.90;;;;;;;-1.14;92.06;98758.78;4177354;28;20204;-51
2023/03/02 05:53:11;;;;;;;16.47;15.00;;;;;;;-1.22;92.15;98756.09;4158774;28;20653;-50
2023/03/02 05:55:14;;;;;;;16.87;15.37;;;;;;;-1.23;92.22;98759.78;4159018;28;20204;-51
2023/03/02 05:57:15;;;;;;;17.47;15.87;;;;;;;-1.14;92.32;98770.31;4159205;28;20216;-51
2023/03/02 05:59:17;;;;;;;18.00;15.87;;;;;;;-1.20;92.12;98770.19;4176458;28;20314;-50
2023/03/02 06:01:19;;;;;;;20.43;15.77;;;;;;;-1.25;92.30;98767.16;4157539;28;20674;-52
2023/03/02 06:03:21;;;;;;;17.10;15.33;;;;;;;-1.25;92.07;98767.16;4156730;28;20220;-51
2023/03/02 06:05:23;;;;;;;18.03;16.13;;;;;;;-1.23;92.32;98765.13;4173631;28;20212;-51
2023/03/02 06:07:26;;;;;;;20.93;18.63;;;;;;;-1.14;92.06;98774.88;4140828;28;20730;-51
2023/03/02 06:09:27;;;;;;;16.17;14.57;;;;;;;-1.24;92.12;98766.16;4175184;28;20686;-52
2023/03/02 06:11:29;;;;;;;16.47;14.83;;;;;;;-1.19;92.48;98772.72;4174427;28;20204;-52
2023/03/02 06:13:31;;;;;;;17.83;15.77;;;;;;;-1.18;92.30;98779.75;4176253;28;20303;-50
2023/03/02 06:15:32;;;;;;;17.50;15.83;;;;;;;-1.23;92.06;98765.13;4158934;28;20295;-51
2023/03/02 06:17:34;;;;;;;17.00;15.40;;;;;;;-1.17;92.00;98780.56;4160031;28;20244;-51
2023/03/02 06:19:35;;;;;;;16.23;14.73;;;;;;;-1.22;92.08;98777.59;4158958;28;20260;-50
2023/03/02 06:21:37;;;;;;;16.03;14.47;;;;;;;-1.13;92.71;98776.56;4159556;28;20268;-51
2023/03/02 06:23:39;;;;;;;19.23;17.43;;;;;;;-1.09;92.36;98778.72;4156768;28;20267;-51
2023/03/02 06:25:46;;;;;;;16.63;15.00;;;;;;;-1.22;92.63;98777.59;4153019;28;20308;-52
2023/03/02 06:27:50;;;;;;;16.37;14.77;;;;;;;-1.12;92.47;98776.38;4169440;28;20735;-52
2023/03/02 06:29:52;;;;;;;16.93;15.20;;;;;;;-1.14;92.29;98780.25;4149851;28;20220;-51
2023/03/02 06:31:54;;;;;;;15.77;13.43;;;;;;;-1.12;92.39;98788.97;4170857;28;21156;-51
2023/03/02 06:33:55;;;;;;;17.00;15.23;;;;;;;-1.13;92.41;98789.97;4156563;28;20657;-51
2023/03/02 06:35:57;;;;;;;15.73;14.27;;;;;;;-1.11;92.70;98780.75;4155050;28;20212;-50
2023/03/02 06:37:59;;;;;;;18.07;16.37;;;;;;;-1.07;92.56;98786.59;4152774;28;20817;-51
2023/03/02 06:40:01;;;;;;;17.37;15.77;;;;;;;-0.98;92.43;98785.56;4166807;28;20877;-51
2023/03/02 06:42:02;;;;;;;17.70;16.03;;;;;;;-0.95;92.21;98785.25;4172540;28;20266;-51
2023/03/02 06:44:04;;;;;;;19.77;14.50;;;;;;;-1.00;92.58;98792.97;4152692;28;20291;-51
2023/03/02 06:46:08;;;;;;;17.73;14.90;;;;;;;-0.93;92.76;98783.22;4169042;28;20698;-51
2023/03/02 06:48:10;;;;;;;15.53;13.93;;;;;;;-0.84;92.33;98787.53;4169041;28;20905;-51
2023/03/02 06:50:12;;;;;;;15.93;14.33;;;;;;;-0.96;92.32;98783.53;4156010;28;20219;-51
2023/03/02 06:52:14;;;;;;;15.93;14.30;;;;;;;-0.92;92.83;98792.94;4155987;28;20590;-52
2023/03/02 06:54:16;;;;;;;15.93;14.33;;;;;;;-0.92;92.83;98779.53;4149789;28;20252;-51
2023/03/02 06:56:18;;;;;;;17.33;15.73;;;;;;;-0.90;92.82;98782.84;4149453;28;20213;-50
2023/03/02 06:58:20;;;;;;;15.03;13.37;;;;;;;-0.85;92.56;98778.66;4170284;28;20262;-51
2023/03/02 07:00:26;;;;;;;16.27;13.77;;;;;;;-0.73;92.69;98784.50;4151753;28;20208;-50
2023/03/02 07:02:28;;;;;;;17.57;13.90;;;;;;;-0.75;92.67;98781.16;4153765;28;20225;-51
2023/03/02 07:04:30;;;;;;;15.83;14.33;;;;;;;-0.73;92.35;98779.13;4150659;28;20206;-51
2023/03/02 07:06:32;;;;;;;22.77;15.13;;;;;;;-0.67;93.38;98790.00;4164754;28;20288;-50
2023/03/02 07:08:34;;;;;;;18.73;15.20;;;;;;;-0.55;93.43;98780.56;4152566;28;20319;-51
2023/03/02 07:10:37;;;;;;;16.80;15.17;;;;;;;-0.54;92.91;98786.78;4153776;28;20658;-51
2023/03/02 07:12:39;;;;;;;15.70;14.23;;;;;;;-0.54;93.12;98784.09;4157090;28;20197;-51
2023/03/02 07:14:41;;;;;;;26.10;14.90;;;;;;;-0.50;93.28;98782.72;4172263;28;20208;-52
2023/03/02 07:16:43;;;;;;;18.03;15.27;;;;;;;-0.43;92.77;98786.38;4153505;28;20722;-51
2023/03/02 07:18:45;;;;;;;17.83;15.17;;;;;;;-0.38;92.57;98778.66;4155716;28;20792;-52
2023/03/02 07:20:46;;;;;;;15.73;14.33;;;;;;;-0.28;93.28;98785.47;4156203;28;20205;-50
2023/03/02 07:22:48;;;;;;;15.73;13.77;;;;;;;-0.17;94.34;98786.94;4141059;28;20223;-51
2023/03/02 07:24:50;;;;;;;18.33;14.30;;;;;;;-0.08;94.83;98792.94;4157719;28;20267;-51
2023/03/02 07:26:51;;;;;;;16.27;14.67;;;;;;;0.06;94.47;98789.50;4157760;28;20240;-51
2023/03/02 07:28:53;;;;;;;18.13;16.17;;;;;;;0.16;94.93;98787.41;4164044;28;20312;-51
2023/03/02 07:30:55;;;;;;;15.80;14.23;;;;;;;0.32;93.80;98790.00;4157580;28;20296;-51
2023/03/02 07:32:56;;;;;;;18.63;16.83;;;;;;;0.40;94.37;98792.63;4155432;28;20230;-51
2023/03/02 07:34:58;;;;;;;18.23;13.53;;;;;;;0.56;93.76;98794.38;4157794;28;20223;-49
2023/03/02 07:37:00;;;;;;;18.63;13.83;;;;;;;0.78;92.14;98797.03;4159986;28;20258;-50
2023/03/02 07:39:03;;;;;;;16.50;12.70;;;;;;;0.97;90.85;98799.22;4160763;28;20248;-50
2023/03/02 07:41:06;;;;;;;12.70;11.40;;;;;;;1.14;90.04;98800.72;4159246;28;20252;-52
2023/03/02 07:43:09;;;;;;;14.93;13.30;;;;;;;1.27;89.85;98803.63;4158905;28;20212;-51
2023/03/02 07:45:15;;;;;;;14.60;12.90;;;;;;;1.33;88.77;98797.47;4153868;28;20650;-52
2023/03/02 07:47:17;;;;;;;13.47;12.13;;;;;;;1.40;89.23;98798.41;4174681;28;20250;-52
2023/03/02 07:49:19;;;;;;;14.25;12.68;;;;;;;1.53;87.39;98798.59;4159533;28;20363;-51
2023/03/02 07:51:20;;;;;;;15.53;13.33;;;;;;;1.48;87.93;98789.41;4159984;28;20229;-50
2023/03/02 07:53:22;;;;;;;13.70;12.38;;;;;;;1.51;87.08;98806.06;4158752;28;20244;-51
2023/03/02 07:55:24;;;;;;;13.10;11.80;;;;;;;1.47;87.69;98810.13;4176904;28;20231;-50
2023/03/02 07:57:26;;;;;;;14.23;13.00;;;;;;;1.52;87.09;98799.63;4158987;28;20244;-51
2023/03/02 07:59:28;;;;;;;14.38;12.60;;;;;;;1.58;86.85;98806.13;4175530;28;20295;-52
2023/03/02 08:01:29;;;;;;;14.55;13.15;;;;;;;1.57;86.39;98810.69;4142215;28;20304;-51
2023/03/02 08:03:32;;;;;;;14.47;12.73;;;;;;;1.63;86.82;98811.81;4159509;28;20211;-51
2023/03/02 08:05:34;;;;;;;12.80;11.50;;;;;;;1.65;86.21;98810.59;4174261;28;20294;-51
2023/03/02 08:07:36;;;;;;;16.57;12.97;;;;;;;1.67;86.82;98808.53;4158812;28;20291;-50
2023/03/02 08:09:38;;;;;;;13.05;11.85;;;;;;;1.71;86.48;98809.84;4177057;28;20361;-51
2023/03/02 08:11:40;;;;;;;15.53;12.97;;;;;;;1.75;85.91;98813.84;4176561;28;20211;-51
2023/03/02 08:13:43;;;;;;;12.48;11.18;;;;;;;1.72;85.93;98802.59;4157293;28;20205;-51
2023/03/02 08:15:45;;;;;;;13.73;11.88;;;;;;;1.77;86.41;98811.81;4158866;28;20988;-51
2023/03/02 08:17:47;;;;;;;14.20;12.80;;;;;;;1.81;86.46;98813.09;4177346;28;20212;-51
2023/03/02 08:19:48;;;;;;;14.73;13.20;;;;;;;1.82;86.06;98812.06;4161753;28;20299;-50
2023/03/02 08:21:50;;;;;;;14.82;13.40;;;;;;;1.87;86.12;98812.34;4178758;28;20228;-51
2023/03/02 08:23:52;;;;;;;13.93;12.48;;;;;;;1.88;85.30;98811.31;4177930;28;20680;-51
2023/03/02 08:25:54;;;;;;;15.45;12.75;;;;;;;1.97;85.51;98807.50;4159536;28;20251;-50
2023/03/02 08:27:56;;;;;;;15.25;13.70;;;;;;;1.96;85.72;98810.38;4159071;28;20311;-51
2023/03/02 08:29:57;;;;;;;17.27;14.32;;;;;;;2.02;84.65;98810.44;4158610;28;20538;-50
2023/03/02 08:31:59;;;;;;;14.75;13.23;;;;;;;2.02;84.41;98812.31;4147317;28;20735;-51
2023/03/02 08:34:01;;;;;;;16.33;14.63;;;;;;;2.09;84.96;98814.09;4160777;28;20212;-51
2023/03/02 08:36:04;;;;;;;14.40;12.98;;;;;;;2.16;84.38;98811.44;4169524;28;20239;-50
2023/03/02 08:38:06;;;;;;;14.13;12.75;;;;;;;2.07;84.83;98816.13;4156239;28;20319;-50
2023/03/02 08:40:08;;;;;;;13.73;12.32;;;;;;;2.23;84.27;98807.81;4160149;28;20942;-51
2023/03/02 08:42:10;;;;;;;10.73;9.60;;;;;;;2.35;83.70;98798.16;4153144;28;20232;-50
2023/03/02 08:44:11;;;;;;;10.88;9.35;;;;;;;2.43;83.61;98799.91;4175734;28;20239;-50
2023/03/02 08:46:17;;;;;;;9.30;8.40;;;;;;;2.69;82.86;98803.72;4178810;28;20295;-51
2023/03/02 08:48:20;;;;;;;15.25;8.88;;;;;;;2.86;81.93;98794.31;4174259;28;20500;-49
2023/03/02 08:50:22;;;;;;;9.98;8.95;;;;;;;3.00;81.59;98795.28;4158659;28;20324;-49
2023/03/02 08:52:24;;;;;;;12.23;9.90;;;;;;;3.06;81.57;98806.13;4142958;28;20723;-50
2023/03/02 08:54:26;;;;;;;9.35;7.88;;;;;;;3.23;81.23;98795.84;4158774;28;20232;-50
2023/03/02 08:56:30;;;;;;;9.82;8.85;;;;;;;3.72;81.07;98796.56;4156776;28;20220;-50
2023/03/02 08:58:32;;;;;;;10.98;8.48;;;;;;;3.88;78.20;98791.66;4160197;28;20237;-50
2023/03/02 09:00:34;;;;;;;9.23;7.68;;;;;;;4.26;77.29;98798.28;4157500;28;20209;-50
2023/03/02 09:02:36;;;;;;;12.05;8.90;;;;;;;4.56;75.33;98796.94;4159376;28;20252;-50
2023/03/02 09:04:38;;;;;;;9.02;7.93;;;;;;;5.07;74.66;98795.28;4176644;28;20291;-50
2023/03/02 09:06:41;;;;;;;9.20;8.27;;;;;;;5.25;73.10;98799.06;4175498;28;20204;-50
2023/03/02 09:08:43;;;;;;;9.05;7.95;;;;;;;5.02;72.93;98797.81;4159265;28;20323;-51
2023/03/02 09:10:45;;;;;;;9.38;8.48;;;;;;;4.78;73.41;98793.00;4174689;28;20254;-50
2023/03/02 09:12:47;;;;;;;12.85;10.65;;;;;;;4.75;73.13;98796.13;4155919;28;20228;-49
2023/03/02 09:14:49;;;;;;;10.82;9.63;;;;;;;5.38;72.62;98803.63;4170158;28;20243;-50
2023/03/02 09:16:51;;;;;;;21.88;11.18;;;;;;;5.55;71.83;98804.88;4158222;28;20299;-50
2023/03/02 09:18:53;;;;;;;14.95;9.80;;;;;;;5.87;70.84;98802.13;4174973;28;20227;-50
2023/03/02 09:20:58;;;;;;;13.20;11.93;;;;;;;5.86;70.06;98796.91;4175060;28;20211;-50
2023/03/02 09:23:00;;;;;;;11.52;9.77;;;;;;;6.10;69.15;98796.19;4172370;28;20303;-49
2023/03/02 09:25:03;;;;;;;14.63;10.00;;;;;;;6.03;69.64;98793.47;4157303;28;20709;-50
2023/03/02 09:27:05;;;;;;;11.85;9.77;;;;;;;5.94;70.20;98789.34;4173704;28;20765;-51
2023/03/02 09:29:07;;;;;;;17.45;11.88;;;;;;;5.67;69.61;98797.75;4173262;28;20307;-50